Time;durP1;ratioP1;P1;durP2;ratioP2;P2;SDS_P1;SDS_P2;PMS_P1;PMS_P2;Temp;Humidity;BMP_temperature;BMP_pressure;BME280_temperature;BME280_humidity;BME280_pressure;Samples;Min_cycle;Max_cycle;Signal;HPM_P1;HPM_P2
2023/09/16 00:01:22;;;;;;;10.97;9.77;;;16.10;99.90;;;;;;4950339;28;20693;-28
2023/09/16 00:03:48;;;;;;;12.20;10.50;;;16.00;99.90;;;;;;4964346;28;20363;-28
2023/09/16 00:06:14;;;;;;;11.43;10.23;;;16.00;99.90;;;;;;4956115;28;20213;-28
2023/09/16 00:08:42;;;;;;;11.83;10.63;;;15.90;99.90;;;;;;4949258;29;20190;-27
2023/09/16 00:11:10;;;;;;;11.00;9.90;;;15.90;99.90;;;;;;4941000;29;20216;-28
2023/09/16 00:13:37;;;;;;;12.23;10.35;;;15.90;99.90;;;;;;4963925;28;20193;-28
2023/09/16 00:16:04;;;;;;;11.70;10.50;;;15.90;99.90;;;;;;4949352;28;20181;-28
2023/09/16 00:18:31;;;;;;;11.40;10.30;;;15.80;99.90;;;;;;4966784;28;20224;-28
2023/09/16 00:20:56;;;;;;;12.70;11.10;;;15.80;99.90;;;;;;4950329;28;20340;-28
2023/09/16 00:23:22;;;;;;;12.13;10.83;;;15.80;99.90;;;;;;4956643;28;20272;-28
2023/09/16 00:25:48;;;;;;;12.63;11.32;;;15.80;99.90;;;;;;4956724;28;20196;-28
2023/09/16 00:28:14;;;;;;;12.63;10.87;;;15.80;99.90;;;;;;4948869;29;20185;-28
2023/09/16 00:30:43;;;;;;;12.97;11.00;;;15.80;99.90;;;;;;4956936;28;20221;-28
2023/09/16 00:33:08;;;;;;;11.87;10.67;;;15.90;99.90;;;;;;4956554;28;20178;-28
2023/09/16 00:35:36;;;;;;;11.20;10.00;;;15.80;99.90;;;;;;4956307;28;20182;-29
2023/09/16 00:38:03;;;;;;;12.30;11.10;;;15.80;99.90;;;;;;4950189;28;20178;-29
2023/09/16 00:40:29;;;;;;;13.00;11.70;;;15.80;99.90;;;;;;4950900;28;20196;-28
2023/09/16 00:42:55;;;;;;;12.67;10.10;;;15.80;99.90;;;;;;4947644;29;20272;-28
2023/09/16 00:45:20;;;;;;;11.73;10.53;;;15.80;99.90;;;;;;4958583;28;20204;-28
2023/09/16 00:47:47;;;;;;;13.23;11.77;;;15.80;99.90;;;;;;4945891;29;20237;-28
2023/09/16 00:50:14;;;;;;;11.65;10.45;;;15.70;99.90;;;;;;4950060;28;20706;-28
2023/09/16 00:52:52;;;;;;;12.00;10.80;;;15.70;99.90;;;;;;4949706;29;20271;-28
2023/09/16 00:55:17;;;;;;;12.60;10.50;;;15.80;99.90;;;;;;4941645;29;20208;-28
2023/09/16 00:57:48;;;;;;;11.60;10.40;;;15.70;99.90;;;;;;4947523;29;20177;-27
2023/09/16 01:00:16;;;;;;;11.83;10.03;;;15.80;99.90;;;;;;4959442;28;20185;-28
2023/09/16 01:02:46;;;;;;;10.17;9.17;;;15.70;99.90;;;;;;4964921;28;20288;-28
2023/09/16 01:05:15;;;;;;;11.17;9.97;;;15.70;99.90;;;;;;4949265;28;20189;-28
2023/09/16 01:07:47;;;;;;;10.93;9.82;;;15.70;99.90;;;;;;4949805;29;20213;-29
2023/09/16 01:10:14;;;;;;;10.80;9.77;;;15.60;99.90;;;;;;4945745;28;20213;-28
2023/09/16 01:12:42;;;;;;;11.57;10.37;;;15.60;99.90;;;;;;4941711;28;20209;-28
2023/09/16 01:15:09;;;;;;;11.07;9.90;;;15.50;99.90;;;;;;4934303;29;20188;-28
2023/09/16 01:18:21;;;;;;;12.37;10.77;;;15.50;99.90;;;;;;4951385;28;20193;-28
2023/09/16 01:20:49;;;;;;;11.43;10.23;;;15.60;99.90;;;;;;4962494;28;20236;-28
2023/09/16 01:23:18;;;;;;;12.87;10.63;;;15.50;99.90;;;;;;4953877;29;20217;-28
2023/09/16 01:25:44;;;;;;;10.97;9.87;;;15.50;99.90;;;;;;4961796;28;20280;-28
2023/09/16 01:28:10;;;;;;;13.20;9.83;;;15.50;99.90;;;;;;4967876;28;20280;-29
2023/09/16 01:30:39;;;;;;;10.43;9.33;;;15.40;99.90;;;;;;4953656;28;20217;-28
2023/09/16 01:33:11;;;;;;;13.20;11.30;;;15.40;99.90;;;;;;4968074;28;20182;-29
2023/09/16 01:35:39;;;;;;;12.47;10.90;;;15.40;99.90;;;;;;4950778;28;20181;-29
2023/09/16 01:38:07;;;;;;;12.87;10.23;;;15.30;99.90;;;;;;4969563;28;20638;-29
2023/09/16 01:40:35;;;;;;;11.87;10.63;;;15.30;99.90;;;;;;4954401;28;20189;-29
2023/09/16 01:43:02;;;;;;;12.87;10.90;;;15.40;99.90;;;;;;4951182;28;20190;-29
2023/09/16 01:45:42;;;;;;;12.53;11.30;;;15.30;99.90;;;;;;4961981;28;20189;-29
2023/09/16 01:48:08;;;;;;;12.73;10.47;;;15.30;99.90;;;;;;4952634;28;20276;-29
2023/09/16 01:50:35;;;;;;;12.07;10.87;;;15.20;99.90;;;;;;4952648;28;20225;-29
2023/09/16 01:53:02;;;;;;;13.23;11.17;;;15.20;99.90;;;;;;4960482;28;20201;-29
2023/09/16 01:55:30;;;;;;;11.20;10.00;;;15.20;99.90;;;;;;4967797;28;20177;-29
2023/09/16 01:57:57;;;;;;;11.77;10.57;;;15.20;99.90;;;;;;4952597;29;20184;-28
2023/09/16 02:00:23;;;;;;;12.30;11.00;;;15.20;99.90;;;;;;4960299;28;20197;-28
2023/09/16 02:02:49;;;;;;;14.50;11.00;;;15.20;99.90;;;;;;4948695;29;20193;-28
2023/09/16 02:05:15;;;;;;;12.87;11.47;;;15.20;99.90;;;;;;4953527;28;20197;-29
2023/09/16 02:07:42;;;;;;;13.27;11.07;;;15.10;99.90;;;;;;4953004;29;20189;-28
2023/09/16 02:10:09;;;;;;;12.33;11.13;;;15.10;99.90;;;;;;4952667;28;20303;-29
2023/09/16 02:12:36;;;;;;;11.10;10.00;;;15.20;99.90;;;;;;4968523;28;20198;-28
2023/09/16 02:15:06;;;;;;;11.40;10.30;;;15.30;99.90;;;;;;4959429;28;20281;-28
2023/09/16 02:17:32;;;;;;;12.57;11.27;;;15.30;99.90;;;;;;4961399;28;20184;-28
2023/09/16 02:19:58;;;;;;;12.53;11.13;;;15.30;99.90;;;;;;4961504;28;20264;-29
2023/09/16 02:22:24;;;;;;;14.43;11.80;;;15.40;99.90;;;;;;4959905;28;20303;-28
2023/09/16 02:24:50;;;;;;;12.33;11.03;;;15.30;99.90;;;;;;4960658;28;20189;-28
2023/09/16 02:27:16;;;;;;;12.33;11.03;;;15.30;99.90;;;;;;4961249;28;20225;-28
2023/09/16 02:29:42;;;;;;;13.47;11.23;;;15.30;99.90;;;;;;4951697;28;20260;-30
2023/09/16 02:32:08;;;;;;;14.37;11.83;;;15.20;99.90;;;;;;4951691;28;20280;-31
2023/09/16 02:34:36;;;;;;;12.50;11.23;;;15.20;99.90;;;;;;4950090;28;20186;-31
2023/09/16 02:37:02;;;;;;;13.17;11.53;;;15.10;99.90;;;;;;4959904;28;20211;-30
2023/09/16 02:39:29;;;;;;;13.60;12.00;;;15.00;99.90;;;;;;4952352;29;20179;-31
2023/09/16 02:41:55;;;;;;;13.77;12.37;;;15.00;99.90;;;;;;4951418;28;20260;-30
2023/09/16 02:44:21;;;;;;;14.30;12.20;;;15.00;99.90;;;;;;4952175;29;20227;-30
2023/09/16 02:46:47;;;;;;;13.40;12.00;;;15.00;99.90;;;;;;4952246;28;20320;-31
2023/09/16 02:49:14;;;;;;;14.50;12.67;;;15.00;99.90;;;;;;4936394;29;20184;-31
2023/09/16 02:51:39;;;;;;;13.77;12.27;;;15.00;99.90;;;;;;5029166;23;20228;-28
2023/09/16 02:54:08;;;;;;;15.30;11.93;;;14.90;99.90;;;;;;4960244;28;20195;-28
2023/09/16 02:56:34;;;;;;;14.00;11.97;;;14.90;99.90;;;;;;4961553;28;20222;-28
2023/09/16 02:59:01;;;;;;;13.73;12.23;;;14.90;99.90;;;;;;4961350;28;20272;-28
2023/09/16 03:01:27;;;;;;;13.60;12.20;;;14.90;99.90;;;;;;4961657;28;20205;-28
2023/09/16 03:03:54;;;;;;;12.70;11.10;;;14.90;99.90;;;;;;4961657;28;20188;-28
2023/09/16 03:06:21;;;;;;;14.03;12.53;;;14.90;99.90;;;;;;4960481;28;20285;-28
2023/09/16 03:08:48;;;;;;;14.37;12.40;;;14.90;99.90;;;;;;4962229;28;20264;-28
2023/09/16 03:11:15;;;;;;;14.33;12.13;;;14.90;99.90;;;;;;4953295;28;20359;-28
2023/09/16 03:13:42;;;;;;;13.17;11.27;;;14.90;99.90;;;;;;4962325;28;20196;-28
2023/09/16 03:16:13;;;;;;;14.93;12.40;;;14.90;99.90;;;;;;4963029;28;20203;-28
2023/09/16 03:18:45;;;;;;;13.90;12.40;;;14.80;99.90;;;;;;4979141;28;20176;-29
2023/09/16 03:21:13;;;;;;;14.60;12.03;;;14.80;99.90;;;;;;4959420;28;20260;-28
2023/09/16 03:23:40;;;;;;;15.50;12.27;;;14.70;99.90;;;;;;4962242;28;20192;-28
2023/09/16 03:26:07;;;;;;;14.07;12.10;;;14.70;99.90;;;;;;4961939;28;20200;-28
2023/09/16 03:28:33;;;;;;;13.50;12.10;;;14.60;99.90;;;;;;4962212;28;20268;-28
2023/09/16 03:30:59;;;;;;;14.43;11.67;;;14.60;99.90;;;;;;4962014;28;20212;-28
2023/09/16 03:33:26;;;;;;;14.23;12.70;;;14.60;99.90;;;;;;4960026;28;20181;-28
2023/09/16 03:35:51;;;;;;;14.23;12.73;;;14.70;99.90;;;;;;4961536;28;20239;-28
2023/09/16 03:38:18;;;;;;;13.87;12.47;;;14.70;99.90;;;;;;4961164;28;20220;-28
2023/09/16 03:40:44;;;;;;;14.60;13.10;;;14.70;99.90;;;;;;4950083;28;20208;-28
2023/09/16 03:43:10;;;;;;;13.83;11.73;;;14.70;99.90;;;;;;4961194;28;20205;-28
2023/09/16 03:45:35;;;;;;;14.70;12.27;;;14.70;99.90;;;;;;4962608;28;20282;-28
2023/09/16 03:48:02;;;;;;;11.87;10.67;;;14.70;99.90;;;;;;4962249;28;20319;-28
2023/09/16 03:50:30;;;;;;;12.40;11.10;;;14.60;99.90;;;;;;4963452;28;20204;-28
2023/09/16 03:52:56;;;;;;;12.43;11.20;;;14.60;99.90;;;;;;4960136;28;20207;-28
2023/09/16 03:55:24;;;;;;;11.93;10.53;;;14.50;99.90;;;;;;4960768;28;20200;-28
2023/09/16 03:57:49;;;;;;;13.67;11.10;;;14.50;99.90;;;;;;4961199;28;20200;-28
2023/09/16 04:00:16;;;;;;;14.53;11.97;;;14.60;99.90;;;;;;4951983;28;20185;-28
2023/09/16 04:02:43;;;;;;;12.27;10.97;;;14.60;99.90;;;;;;4969512;28;20200;-28
2023/09/16 04:05:09;;;;;;;12.17;10.13;;;14.60;99.90;;;;;;4961778;28;20185;-28
2023/09/16 04:07:36;;;;;;;11.70;10.50;;;14.60;99.90;;;;;;4961783;28;20188;-28
2023/09/16 04:10:03;;;;;;;15.03;11.70;;;14.60;99.90;;;;;;4961361;28;20215;-29
2023/09/16 04:12:29;;;;;;;12.07;10.87;;;14.60;99.90;;;;;;4961077;28;20197;-28
2023/09/16 04:14:54;;;;;;;13.00;11.67;;;14.60;99.90;;;;;;4962311;28;20180;-28
2023/09/16 04:17:21;;;;;;;12.23;11.00;;;14.60;99.90;;;;;;4952461;28;20235;-28
2023/09/16 04:19:47;;;;;;;13.53;11.57;;;14.60;99.90;;;;;;4960466;28;20204;-28
2023/09/16 04:22:13;;;;;;;11.67;10.47;;;14.70;99.90;;;;;;4962639;28;20196;-28
2023/09/16 04:24:39;;;;;;;15.07;12.60;;;14.70;99.90;;;;;;4961521;28;20264;-28
2023/09/16 04:27:05;;;;;;;13.17;11.83;;;14.70;99.90;;;;;;4968610;28;20187;-28
2023/09/16 04:29:31;;;;;;;13.57;11.77;;;14.70;99.90;;;;;;4961323;28;20180;-28
2023/09/16 04:31:57;;;;;;;12.83;10.27;;;14.70;99.90;;;;;;4962634;28;20207;-28
2023/09/16 04:34:23;;;;;;;11.37;10.00;;;14.70;99.90;;;;;;4953552;28;20185;-28
2023/09/16 04:36:49;;;;;;;12.10;10.90;;;14.60;99.90;;;;;;4960511;28;20189;-28
2023/09/16 04:39:23;;;;;;;13.27;11.23;;;14.50;99.90;;;;;;4962295;28;20179;-28
2023/09/16 04:41:53;;;;;;;12.63;11.27;;;14.50;99.90;;;;;;4969489;28;20215;-28
2023/09/16 04:44:21;;;;;;;11.23;10.10;;;14.50;99.90;;;;;;4954494;28;20189;-29
2023/09/16 04:46:47;;;;;;;11.87;10.17;;;14.50;99.90;;;;;;4960193;28;20192;-28
2023/09/16 04:49:13;;;;;;;11.20;10.10;;;14.40;99.90;;;;;;4961170;28;20185;-28
2023/09/16 04:51:39;;;;;;;12.13;10.67;;;14.40;99.90;;;;;;4961648;28;20216;-28
2023/09/16 04:54:07;;;;;;;10.77;9.67;;;14.40;99.90;;;;;;4963169;28;20208;-29
2023/09/16 04:56:37;;;;;;;10.73;9.63;;;14.40;99.90;;;;;;4957721;28;20707;-28
2023/09/16 04:59:03;;;;;;;11.27;10.07;;;14.30;99.90;;;;;;4963897;28;20185;-28
2023/09/16 05:01:30;;;;;;;12.23;9.87;;;14.20;99.90;;;;;;4964800;28;20212;-28
2023/09/16 05:03:58;;;;;;;12.73;10.13;;;14.20;99.90;;;;;;4956501;28;20267;-29
2023/09/16 05:06:24;;;;;;;11.87;10.60;;;14.10;99.90;;;;;;4955744;28;20307;-28
2023/09/16 05:08:53;;;;;;;11.27;9.87;;;14.10;99.90;;;;;;4965550;28;20185;-28
2023/09/16 05:11:18;;;;;;;11.33;10.20;;;14.10;99.90;;;;;;4956582;28;20220;-29
2023/09/16 05:13:51;;;;;;;12.07;10.60;;;14.00;99.90;;;;;;4963457;28;20182;-28
2023/09/16 05:16:17;;;;;;;10.53;9.53;;;14.00;99.90;;;;;;4972496;28;20188;-28
2023/09/16 05:18:43;;;;;;;10.83;9.70;;;13.90;99.90;;;;;;4963886;28;20180;-28
2023/09/16 05:21:09;;;;;;;12.90;10.57;;;14.00;99.90;;;;;;4963574;28;20201;-28
2023/09/16 05:23:37;;;;;;;12.73;11.40;;;13.90;99.90;;;;;;4962811;28;20188;-28
2023/09/16 05:26:09;;;;;;;12.70;11.50;;;13.90;99.90;;;;;;4964562;28;20246;-27
2023/09/16 05:28:37;;;;;;;11.77;10.23;;;13.80;99.90;;;;;;4965875;28;20256;-27
2023/09/16 05:31:04;;;;;;;12.37;11.10;;;13.80;99.90;;;;;;4964053;28;20246;-28
2023/09/16 05:33:33;;;;;;;11.17;10.07;;;13.80;99.90;;;;;;4965341;28;20192;-27
2023/09/16 05:35:58;;;;;;;12.53;11.23;;;13.80;99.90;;;;;;4964670;28;20181;-29
2023/09/16 05:38:24;;;;;;;12.60;10.93;;;13.80;99.90;;;;;;4957113;28;20176;-29
2023/09/16 05:40:50;;;;;;;13.97;11.57;;;13.80;99.90;;;;;;4963077;28;20671;-29
2023/09/16 05:43:18;;;;;;;13.37;11.10;;;13.80;99.90;;;;;;4961767;28;20661;-29
2023/09/16 05:45:50;;;;;;;11.37;10.17;;;13.90;99.90;;;;;;4963312;28;20188;-29
2023/09/16 05:48:17;;;;;;;13.53;11.93;;;14.00;99.90;;;;;;4969921;28;20180;-29
2023/09/16 05:50:43;;;;;;;13.30;11.50;;;14.00;99.90;;;;;;4964507;28;20303;-29
2023/09/16 05:53:10;;;;;;;14.07;11.80;;;14.10;99.90;;;;;;4965242;28;20199;-29
2023/09/16 05:55:39;;;;;;;14.47;12.97;;;14.20;99.90;;;;;;4964590;28;20176;-28
2023/09/16 05:58:11;;;;;;;15.10;12.47;;;14.20;99.90;;;;;;4963919;28;20185;-28
2023/09/16 06:00:38;;;;;;;14.33;12.50;;;14.20;99.90;;;;;;4963345;28;20203;-28
2023/09/16 06:03:05;;;;;;;14.13;12.73;;;14.30;99.90;;;;;;4964268;28;20269;-28
2023/09/16 06:05:33;;;;;;;14.57;11.80;;;14.50;99.90;;;;;;4962947;28;20186;-28
2023/09/16 06:08:00;;;;;;;13.10;11.80;;;14.60;99.90;;;;;;4962081;28;20191;-28
2023/09/16 06:10:27;;;;;;;13.67;12.13;;;14.70;99.90;;;;;;4954857;28;20198;-28
2023/09/16 06:12:52;;;;;;;13.83;12.43;;;14.80;99.90;;;;;;4962293;28;20266;-28
2023/09/16 06:15:18;;;;;;;14.00;12.13;;;14.90;99.90;;;;;;4961734;28;20186;-28
2023/09/16 06:17:45;;;;;;;14.87;13.27;;;15.00;99.90;;;;;;4956590;28;20176;-28
2023/09/16 06:20:11;;;;;;;16.27;13.93;;;15.10;99.90;;;;;;4963678;28;20207;-29
2023/09/16 06:22:36;;;;;;;18.07;14.23;;;15.20;99.90;;;;;;4961957;28;20240;-28
2023/09/16 06:25:03;;;;;;;15.00;13.37;;;15.30;99.90;;;;;;4962925;28;20223;-29
2023/09/16 06:27:29;;;;;;;13.13;11.77;;;15.30;99.90;;;;;;4954732;28;20272;-28
2023/09/16 06:29:55;;;;;;;14.10;12.70;;;15.40;99.90;;;;;;4959568;28;20216;-28
2023/09/16 06:32:22;;;;;;;14.30;12.80;;;15.40;99.90;;;;;;4962924;28;20204;-28
2023/09/16 06:34:52;;;;;;;15.50;12.80;;;15.50;99.90;;;;;;4961646;28;20200;-29
2023/09/16 06:37:19;;;;;;;13.83;12.23;;;15.60;99.90;;;;;;4961469;28;20184;-28
2023/09/16 06:39:51;;;;;;;15.50;12.53;;;15.80;99.90;;;;;;4967975;28;20181;-28
2023/09/16 06:42:21;;;;;;;13.70;12.30;;;15.90;99.90;;;;;;4968849;28;20257;-29
2023/09/16 06:44:55;;;;;;;13.33;12.03;;;16.10;99.90;;;;;;4963390;28;20261;-29
2023/09/16 06:47:27;;;;;;;12.50;11.30;;;16.20;99.90;;;;;;4962557;28;20211;-28
2023/09/16 06:49:56;;;;;;;11.87;10.70;;;16.30;99.90;;;;;;4970709;28;20208;-27
2023/09/16 06:52:26;;;;;;;12.35;11.07;;;16.40;99.90;;;;;;4967997;28;20307;-28
2023/09/16 06:54:52;;;;;;;12.25;11.02;;;16.40;99.90;;;;;;4962773;28;20177;-29
2023/09/16 06:57:18;;;;;;;15.20;11.50;;;16.40;99.90;;;;;;4962124;28;20192;-29
2023/09/16 06:59:48;;;;;;;12.80;10.80;;;16.50;99.90;;;;;;4963811;28;20208;-28
2023/09/16 07:02:14;;;;;;;11.43;10.18;;;16.60;99.90;;;;;;4963073;28;20204;-28
2023/09/16 07:04:40;;;;;;;13.33;10.87;;;16.60;99.90;;;;;;4962513;28;20176;-29
2023/09/16 07:07:08;;;;;;;11.95;10.73;;;16.70;99.90;;;;;;4961474;28;20207;-28
2023/09/16 07:09:34;;;;;;;13.00;11.70;;;16.70;99.90;;;;;;4952282;28;20181;-28
2023/09/16 07:12:00;;;;;;;11.60;10.50;;;16.80;99.90;;;;;;4962687;28;20205;-29
2023/09/16 07:14:26;;;;;;;12.63;11.48;;;16.80;99.90;;;;;;4950638;28;20177;-28
2023/09/16 07:16:52;;;;;;;11.00;10.00;;;16.90;99.90;;;;;;4963861;28;20177;-28
2023/09/16 07:19:18;;;;;;;12.52;11.18;;;17.00;99.90;;;;;;4962693;28;20276;-29
2023/09/16 07:21:44;;;;;;;12.45;11.25;;;17.10;99.90;;;;;;4963221;28;20208;-29
2023/09/16 07:24:10;;;;;;;13.57;12.15;;;17.20;99.90;;;;;;4963921;28;20192;-29
2023/09/16 07:26:36;;;;;;;12.23;10.93;;;17.30;99.90;;;;;;4962268;28;20688;-29
2023/09/16 07:29:02;;;;;;;12.40;11.07;;;17.50;99.90;;;;;;4961979;28;20189;-29
2023/09/16 07:31:28;;;;;;;12.85;11.55;;;17.60;99.90;;;;;;4961330;28;20212;-29
2023/09/16 07:33:54;;;;;;;13.30;11.90;;;17.60;99.90;;;;;;4960892;28;20189;-28
2023/09/16 07:36:21;;;;;;;12.55;11.25;;;17.70;99.90;;;;;;4954341;28;20181;-29
2023/09/16 07:38:49;;;;;;;13.07;11.88;;;17.70;99.90;;;;;;4963587;28;20187;-28
2023/09/16 07:41:18;;;;;;;13.10;11.80;;;17.70;99.90;;;;;;4968937;28;20212;-28
2023/09/16 07:43:44;;;;;;;14.48;13.05;;;17.80;99.90;;;;;;4963879;28;20271;-29
2023/09/16 07:46:10;;;;;;;14.07;12.68;;;17.80;99.90;;;;;;4960522;28;20256;-29
2023/09/16 07:48:36;;;;;;;13.15;11.75;;;17.90;99.90;;;;;;4971161;28;20196;-28
2023/09/16 07:51:01;;;;;;;13.00;11.70;;;18.00;99.90;;;;;;4962619;28;20220;-29
2023/09/16 07:53:27;;;;;;;14.60;13.00;;;18.00;99.90;;;;;;4961349;28;20268;-29
2023/09/16 07:55:53;;;;;;;14.13;12.63;;;18.10;99.90;;;;;;4961499;28;20181;-29
2023/09/16 07:58:19;;;;;;;13.63;12.30;;;18.10;99.90;;;;;;4961872;28;20191;-29
2023/09/16 08:00:44;;;;;;;14.32;12.82;;;18.20;99.90;;;;;;4961943;28;20645;-29
2023/09/16 08:03:10;;;;;;;12.77;11.40;;;18.30;99.90;;;;;;4964673;28;20216;-29
2023/09/16 08:05:36;;;;;;;14.85;12.68;;;18.40;99.90;;;;;;4960245;28;20216;-29
2023/09/16 08:08:03;;;;;;;13.80;12.45;;;18.50;99.90;;;;;;4961530;28;20211;-29
2023/09/16 08:10:29;;;;;;;14.52;13.02;;;18.60;99.90;;;;;;4967051;28;20212;-28
2023/09/16 08:12:55;;;;;;;13.80;12.30;;;18.70;99.90;;;;;;4983941;28;20204;-28
2023/09/16 08:15:21;;;;;;;15.65;13.07;;;18.90;99.90;;;;;;4947652;28;20234;-29
2023/09/16 08:17:47;;;;;;;13.18;11.88;;;19.00;99.90;;;;;;4958159;28;20178;-29
2023/09/16 08:20:13;;;;;;;14.25;12.77;;;19.20;99.90;;;;;;4959274;28;20188;-29
2023/09/16 08:22:39;;;;;;;13.45;11.80;;;19.40;99.90;;;;;;4952743;28;20213;-28
2023/09/16 08:25:05;;;;;;;13.85;12.45;;;19.70;99.90;;;;;;4955339;28;20645;-29
2023/09/16 08:27:31;;;;;;;14.18;12.48;;;19.80;99.90;;;;;;4959920;28;20271;-28
2023/09/16 08:29:58;;;;;;;39.58;20.33;;;19.90;99.90;;;;;;4960870;28;20214;-30
2023/09/16 08:32:28;;;;;;;37.17;18.30;;;20.00;99.90;;;;;;4969836;28;20295;-30
2023/09/16 08:34:55;;;;;;;21.95;15.00;;;20.10;99.90;;;;;;4955526;28;20204;-29
2023/09/16 08:37:20;;;;;;;12.77;11.48;;;20.20;99.90;;;;;;4963367;28;20271;-29
2023/09/16 08:39:46;;;;;;;12.02;10.82;;;20.30;99.90;;;;;;4974541;28;20319;-29
2023/09/16 08:42:35;;;;;;;14.02;12.52;;;20.40;99.90;;;;;;4964459;28;20200;-29
2023/09/16 08:45:05;;;;;;;14.05;12.75;;;20.30;99.90;;;;;;4957607;28;20181;-29
2023/09/16 08:47:40;;;;;;;12.82;11.50;;;20.40;99.90;;;;;;4964322;28;20273;-29
2023/09/16 08:50:09;;;;;;;11.80;10.60;;;20.50;99.90;;;;;;4959297;28;20211;-29
2023/09/16 08:52:46;;;;;;;28.02;12.90;;;20.80;99.90;;;;;;4965506;28;20227;-29
2023/09/16 08:55:13;;;;;;;12.82;11.48;;;21.00;99.90;;;;;;4972847;28;20188;-29
2023/09/16 08:57:47;;;;;;;15.50;10.52;;;21.20;99.90;;;;;;4956241;28;20185;-29
2023/09/16 09:00:13;;;;;;;18.13;10.32;;;21.30;99.90;;;;;;4963313;28;20208;-29
2023/09/16 09:02:40;;;;;;;11.35;9.82;;;21.40;99.90;;;;;;4953177;28;20659;-29
2023/09/16 09:05:07;;;;;;;12.88;9.45;;;21.40;99.90;;;;;;4972097;28;20192;-29
2023/09/16 09:07:39;;;;;;;10.48;9.40;;;21.40;99.90;;;;;;4966609;28;20279;-29
2023/09/16 09:10:05;;;;;;;10.88;9.77;;;21.40;99.90;;;;;;4963764;28;20204;-29
2023/09/16 09:12:36;;;;;;;11.00;9.82;;;21.50;99.90;;;;;;4956080;28;20208;-29
2023/09/16 09:15:06;;;;;;;12.70;10.10;;;21.70;99.90;;;;;;4965528;28;20223;-29
2023/09/16 09:17:42;;;;;;;9.90;9.00;;;21.90;99.90;;;;;;4963864;28;20184;-29
2023/09/16 09:20:13;;;;;;;9.55;8.48;;;22.10;99.90;;;;;;4970986;28;20185;-29
2023/09/16 09:22:41;;;;;;;9.07;8.27;;;22.30;99.90;;;;;;4964084;28;20212;-29
2023/09/16 09:25:07;;;;;;;10.48;9.40;;;22.50;99.90;;;;;;4955968;28;20184;-29
2023/09/16 09:27:34;;;;;;;11.80;9.95;;;22.70;99.90;;;;;;4972522;28;20185;-29
2023/09/16 09:30:00;;;;;;;10.90;9.68;;;22.70;99.90;;;;;;4962251;28;20212;-29
2023/09/16 09:32:31;;;;;;;17.70;9.75;;;22.90;99.90;;;;;;4962161;28;20208;-30
2023/09/16 09:35:07;;;;;;;8.32;7.40;;;23.00;99.90;;;;;;4954536;28;20203;-30
2023/09/16 09:37:33;;;;;;;8.70;7.85;;;23.10;99.90;;;;;;4953828;28;20184;-29
2023/09/16 09:40:11;;;;;;;9.07;8.18;;;23.20;99.90;;;;;;4956371;28;20188;-30
2023/09/16 09:42:45;;;;;;;10.10;8.73;;;23.30;99.90;;;;;;4970740;28;20262;-29
2023/09/16 09:45:11;;;;;;;6.88;6.28;;;23.20;99.90;;;;;;4956201;28;20223;-30
2023/09/16 09:47:41;;;;;;;9.88;8.98;;;23.40;99.90;;;;;;4963598;28;20195;-30
2023/09/16 09:50:14;;;;;;;10.30;8.32;;;23.60;99.90;;;;;;4955767;28;20223;-30
2023/09/16 09:52:48;;;;;;;8.38;7.07;;;23.50;99.90;;;;;;4969388;28;20220;-30
2023/09/16 09:55:27;;;;;;;8.48;7.68;;;23.70;99.90;;;;;;4970084;28;20227;-30
2023/09/16 09:57:53;;;;;;;8.05;7.35;;;23.90;99.90;;;;;;4964887;28;20184;-29
2023/09/16 10:00:26;;;;;;;7.75;7.05;;;24.10;99.90;;;;;;4963962;28;20188;-30
2023/09/16 10:03:00;;;;;;;7.85;7.15;;;24.30;99.90;;;;;;4972706;28;20212;-30
2023/09/16 10:05:26;;;;;;;6.63;6.03;;;24.50;99.90;;;;;;4956623;28;20189;-30
2023/09/16 10:07:53;;;;;;;7.68;6.97;;;24.70;99.90;;;;;;4972961;28;20185;-29
2023/09/16 10:10:24;;;;;;;9.15;7.18;;;24.70;99.90;;;;;;4954970;28;20296;-29
2023/09/16 10:12:54;;;;;;;8.52;7.13;;;24.90;99.90;;;;;;4955104;28;20208;-30
2023/09/16 10:15:25;;;;;;;6.15;5.65;;;25.00;99.90;;;;;;4970813;28;20271;-31
2023/09/16 10:17:52;;;;;;;7.35;5.80;;;25.20;99.90;;;;;;4957382;28;20173;-31
2023/09/16 10:20:19;;;;;;;6.45;5.93;;;25.20;99.90;;;;;;4966305;28;20277;-30
2023/09/16 10:22:45;;;;;;;5.60;5.10;;;25.30;99.90;;;;;;4950165;28;20203;-30
2023/09/16 10:25:12;;;;;;;6.00;5.00;;;25.40;99.90;;;;;;4978664;28;20181;-30
2023/09/16 10:27:48;;;;;;;5.28;4.88;;;25.60;99.90;;;;;;4954930;28;20280;-30
2023/09/16 10:30:15;;;;;;;6.03;4.97;;;25.70;99.90;;;;;;4967168;28;20203;-30
2023/09/16 10:32:41;;;;;;;4.90;4.50;;;25.70;99.90;;;;;;4949933;28;20259;-30
2023/09/16 10:35:09;;;;;;;5.30;4.30;;;25.70;99.90;;;;;;4957653;28;20177;-30
2023/09/16 10:37:36;;;;;;;4.13;3.83;;;25.90;99.90;;;;;;4979900;28;20189;-29
2023/09/16 10:40:04;;;;;;;5.18;4.78;;;25.90;99.90;;;;;;4958555;28;20184;-30
2023/09/16 10:42:33;;;;;;;5.63;5.13;;;26.00;99.90;;;;;;4980935;28;20259;-30
2023/09/16 10:45:02;;;;;;;6.15;5.22;;;26.10;99.90;;;;;;4961429;28;20181;-30
2023/09/16 10:47:29;;;;;;;5.47;5.07;;;26.00;99.90;;;;;;4949008;28;20193;-31
2023/09/16 10:49:55;;;;;;;4.30;3.90;;;26.10;99.90;;;;;;4959356;28;20174;-29
2023/09/16 10:52:47;;;;;;;4.07;3.72;;;26.20;99.90;;;;;;4973787;28;20212;-30
2023/09/16 10:55:21;;;;;;;4.85;4.35;;;26.40;99.90;;;;;;4952914;28;20189;-30
2023/09/16 10:58:06;;;;;;;4.07;3.78;;;26.60;99.90;;;;;;4973589;28;20181;-30
2023/09/16 11:00:53;;;;;;;3.88;3.58;;;26.80;99.90;;;;;;4971337;28;20188;-29
2023/09/16 11:03:28;;;;;;;3.90;3.40;;;27.00;99.90;;;;;;4948708;28;20185;-30
2023/09/16 11:06:01;;;;;;;3.80;3.50;;;26.90;99.90;;;;;;4952806;28;20183;-30
2023/09/16 11:08:28;;;;;;;3.80;3.50;;;27.00;99.90;;;;;;4954762;28;20185;-30
2023/09/16 11:10:56;;;;;;;2.80;2.50;;;27.00;99.90;;;;;;4954826;28;20212;-30
2023/09/16 11:13:28;;;;;;;3.30;3.10;;;26.90;99.90;;;;;;4952980;28;20235;-30
2023/09/16 11:16:03;;;;;;;3.03;2.83;;;27.00;99.90;;;;;;4953217;28;20173;-30
2023/09/16 11:18:29;;;;;;;3.85;3.55;;;27.10;99.90;;;;;;4957172;28;20177;-30
2023/09/16 11:20:55;;;;;;;3.65;3.35;;;27.20;99.90;;;;;;4951995;28;20185;-30
2023/09/16 11:23:22;;;;;;;3.85;3.33;;;27.30;99.90;;;;;;4962299;28;20319;-30
2023/09/16 11:25:47;;;;;;;3.60;3.30;;;27.40;99.90;;;;;;4954474;28;20212;-30
2023/09/16 11:28:18;;;;;;;3.10;2.90;;;27.50;99.90;;;;;;4962178;28;20188;-30
2023/09/16 11:31:01;;;;;;;3.60;3.30;;;27.60;99.90;;;;;;4962752;28;20232;-30
2023/09/16 11:33:31;;;;;;;4.40;4.10;;;27.80;99.90;;;;;;4969152;28;20192;-30
2023/09/16 11:36:10;;;;;;;4.22;3.92;;;28.00;99.90;;;;;;4968440;28;20184;-30
2023/09/16 11:38:58;;;;;;;4.25;3.90;;;28.10;99.90;;;;;;4968851;28;20181;-30
2023/09/16 11:41:24;;;;;;;3.30;3.10;;;28.30;99.90;;;;;;4947200;28;20216;-30
2023/09/16 11:43:51;;;;;;;2.90;2.70;;;28.40;99.90;;;;;;4944522;28;20709;-30
2023/09/16 11:46:17;;;;;;;2.80;2.60;;;28.40;99.90;;;;;;4955788;28;20263;-30
2023/09/16 11:48:53;;;;;;;3.85;2.83;;;28.20;99.90;;;;;;4955595;28;20240;-31
2023/09/16 11:51:21;;;;;;;2.97;2.45;;;28.30;99.90;;;;;;4950267;28;20220;-31
2023/09/16 11:53:50;;;;;;;3.05;2.85;;;28.40;99.90;;;;;;4970040;28;20189;-31
2023/09/16 11:56:18;;;;;;;2.67;2.45;;;28.50;99.90;;;;;;4969953;28;20351;-30
2023/09/16 11:58:45;;;;;;;2.47;2.28;;;28.70;99.90;;;;;;4953176;28;20208;-31
2023/09/16 12:01:12;;;;;;;2.65;2.45;;;29.00;99.90;;;;;;4961265;28;20208;-31
2023/09/16 12:03:41;;;;;;;2.38;2.20;;;29.20;99.90;;;;;;4965087;28;20287;-31
2023/09/16 12:06:10;;;;;;;2.42;2.20;;;29.30;99.90;;;;;;4958687;28;20180;-31
2023/09/16 12:08:37;;;;;;;2.25;2.05;;;29.50;99.90;;;;;;4959516;28;20197;-30
2023/09/16 12:11:04;;;;;;;2.60;2.03;;;29.50;99.90;;;;;;4951709;28;20214;-31
2023/09/16 12:13:31;;;;;;;2.55;2.10;;;29.60;99.90;;;;;;4954694;28;20192;-31
2023/09/16 12:15:58;;;;;;;1.90;1.80;;;29.70;99.90;;;;;;4962034;28;20172;-31
2023/09/16 12:18:24;;;;;;;4.20;2.00;;;29.80;99.90;;;;;;4954570;28;20187;-31
2023/09/16 12:20:52;;;;;;;1.90;1.80;;;29.80;99.90;;;;;;4953990;28;20193;-32
2023/09/16 12:23:18;;;;;;;2.40;2.20;;;30.00;99.90;;;;;;4968475;28;20239;-31
2023/09/16 12:25:46;;;;;;;3.20;2.08;;;30.00;99.90;;;;;;4963741;28;20188;-30
2023/09/16 12:28:21;;;;;;;2.30;2.10;;;30.00;99.90;;;;;;4968989;28;20185;-31
2023/09/16 12:30:50;;;;;;;2.40;2.20;;;30.00;99.90;;;;;;4960980;28;20290;-31
2023/09/16 12:33:22;;;;;;;2.40;2.20;;;30.00;99.90;;;;;;4958924;28;20180;-30
2023/09/16 12:35:51;;;;;;;2.47;2.28;;;30.20;99.90;;;;;;4955512;28;20169;-30
2023/09/16 12:38:18;;;;;;;2.20;2.10;;;30.20;99.90;;;;;;4963818;28;20181;-31